Time;durP1;ratioP1;P1;durP2;ratioP2;P2;SDS_P1;SDS_P2;PMS_P1;PMS_P2;Temp;Humidity;BMP_temperature;BMP_pressure;BME280_temperature;BME280_humidity;BME280_pressure;Samples;Min_cycle;Max_cycle;Signal;HPM_P1;HPM_P2
2023/03/29 00:00:26;;;;;;;3.40;2.40;;;5.90;99.90;;;;;;4996938;28;20041;-77
2023/03/29 00:02:55;;;;;;;3.97;2.17;;;5.80;99.90;;;;;;5009954;28;20042;-78
2023/03/29 00:05:21;;;;;;;3.67;2.00;;;5.80;99.90;;;;;;4994859;28;20041;-77
2023/03/29 00:07:52;;;;;;;4.03;2.28;;;5.80;99.90;;;;;;5011886;28;20145;-77
2023/03/29 00:10:21;;;;;;;3.92;2.10;;;5.90;99.90;;;;;;5009016;28;20076;-77
2023/03/29 00:12:47;;;;;;;5.18;2.33;;;5.70;99.90;;;;;;4994951;28;20141;-78
2023/03/29 00:15:13;;;;;;;5.72;2.75;;;6.10;99.90;;;;;;4995021;28;20034;-77
2023/03/29 00:17:39;;;;;;;4.68;2.10;;;5.70;99.90;;;;;;5011239;28;20077;-77
2023/03/29 00:20:08;;;;;;;5.45;2.30;;;6.20;99.90;;;;;;4994572;28;20065;-78
2023/03/29 00:22:36;;;;;;;4.78;1.95;;;5.80;99.90;;;;;;4994923;28;20042;-78
2023/03/29 00:25:03;;;;;;;5.53;2.13;;;5.80;99.90;;;;;;5010935;28;20103;-78
2023/03/29 00:27:28;;;;;;;5.85;2.10;;;5.70;99.90;;;;;;4994948;28;20112;-77
2023/03/29 00:29:55;;;;;;;5.70;2.03;;;6.10;99.90;;;;;;4994886;28;20073;-78
2023/03/29 00:32:21;;;;;;;4.20;2.50;;;5.70;99.90;;;;;;4994063;28;20490;-77
2023/03/29 00:34:49;;;;;;;6.00;2.50;;;6.20;99.90;;;;;;5011293;28;20127;-77
2023/03/29 00:37:18;;;;;;;5.72;2.60;;;5.80;99.90;;;;;;4976655;28;20034;-77
2023/03/29 00:39:47;;;;;;;4.25;1.80;;;5.80;99.90;;;;;;4993939;28;20083;-77
2023/03/29 00:42:15;;;;;;;4.22;2.13;;;5.80;99.90;;;;;;5001785;28;20046;-78
2023/03/29 00:45:06;;;;;;;3.88;1.70;;;5.80;99.90;;;;;;5001345;28;20034;-78
2023/03/29 00:47:55;;;;;;;3.53;2.47;;;5.80;99.90;;;;;;5009138;28;20033;-77
2023/03/29 00:50:56;;;;;;;4.95;2.25;;;5.80;99.90;;;;;;5010265;28;20042;-78
2023/03/29 00:53:38;;;;;;;6.10;1.77;;;5.80;99.90;;;;;;5009218;28;20085;-78
2023/03/29 00:56:12;;;;;;;2.92;2.10;;;5.80;99.90;;;;;;5008899;28;20050;-78
2023/03/29 00:59:05;;;;;;;3.28;2.25;;;5.80;99.90;;;;;;4993752;28;20204;-78
2023/03/29 01:01:53;;;;;;;2.97;1.85;;;5.70;99.90;;;;;;5010265;28;20065;-77
2023/03/29 01:04:31;;;;;;;3.55;1.80;;;6.10;99.90;;;;;;4993973;28;20494;-78
2023/03/29 01:07:12;;;;;;;3.85;2.47;;;6.00;99.90;;;;;;5010242;28;20083;-78
2023/03/29 01:09:41;;;;;;;3.47;1.80;;;5.80;99.90;;;;;;5010547;28;20562;-78
2023/03/29 01:12:12;;;;;;;4.47;1.98;;;5.80;99.90;;;;;;5009529;28;20037;-78
2023/03/29 01:14:44;;;;;;;2.42;1.55;;;5.80;99.90;;;;;;4993881;28;20038;-79
2023/03/29 01:17:10;;;;;;;6.68;2.10;;;6.20;99.90;;;;;;4993769;28;20041;-78
2023/03/29 01:19:42;;;;;;;4.07;2.00;;;6.00;99.90;;;;;;4993688;28;20444;-78
2023/03/29 01:22:24;;;;;;;4.65;2.10;;;5.80;99.90;;;;;;5009734;28;20173;-78
2023/03/29 01:25:29;;;;;;;3.80;2.05;;;5.80;99.90;;;;;;5010260;28;20033;-78
2023/03/29 01:28:01;;;;;;;4.32;1.77;;;5.80;99.90;;;;;;4967317;28;20383;-78
2023/03/29 01:30:58;;;;;;;3.38;1.80;;;5.80;99.90;;;;;;5009872;28;20088;-79
2023/03/29 01:33:30;;;;;;;3.30;1.75;;;5.80;99.90;;;;;;5008735;28;20058;-79
2023/03/29 01:36:02;;;;;;;2.42;1.83;;;5.80;99.90;;;;;;5008006;28;20045;-78
2023/03/29 01:38:58;;;;;;;7.30;2.45;;;5.80;99.90;;;;;;5009705;28;20087;-78
2023/03/29 01:41:50;;;;;;;3.92;2.15;;;5.80;99.90;;;;;;5007271;28;20461;-78
2023/03/29 01:44:29;;;;;;;3.25;1.95;;;5.80;99.90;;;;;;4992906;28;20491;-79
2023/03/29 01:47:09;;;;;;;3.58;2.05;;;5.80;99.90;;;;;;4993061;28;20034;-79
2023/03/29 01:49:53;;;;;;;5.10;2.10;;;5.80;99.90;;;;;;5009525;28;20069;-79
2023/03/29 01:52:32;;;;;;;4.47;2.25;;;5.90;99.90;;;;;;5008373;28;20049;-78
2023/03/29 01:55:13;;;;;;;5.05;2.60;;;5.90;99.90;;;;;;5009890;28;20478;-79
2023/03/29 01:57:42;;;;;;;7.03;2.50;;;5.90;99.90;;;;;;4993532;28;20119;-78
2023/03/29 02:00:13;;;;;;;4.35;2.10;;;5.80;99.90;;;;;;5009756;28;20026;-78
2023/03/29 02:02:41;;;;;;;6.65;3.00;;;6.20;99.90;;;;;;4993623;28;20120;-79
2023/03/29 02:05:08;;;;;;;7.72;3.30;;;6.20;99.90;;;;;;4993380;28;20038;-79
2023/03/29 02:07:37;;;;;;;3.63;2.28;;;5.80;99.90;;;;;;5009462;28;20727;-79
2023/03/29 02:10:05;;;;;;;2.85;1.92;;;5.70;99.90;;;;;;5010005;28;20398;-79
2023/03/29 02:12:32;;;;;;;6.22;2.75;;;5.70;99.90;;;;;;5009668;28;20474;-78
2023/03/29 02:14:59;;;;;;;5.78;3.00;;;5.70;99.90;;;;;;4993650;28;20398;-79
2023/03/29 02:17:26;;;;;;;4.50;2.75;;;5.80;99.90;;;;;;4993234;28;20073;-79
2023/03/29 02:20:13;;;;;;;10.15;3.40;;;5.70;99.90;;;;;;4993394;28;20045;-79
2023/03/29 02:23:07;;;;;;;4.05;2.58;;;5.60;99.90;;;;;;5009185;28;20042;-79
2023/03/29 02:25:34;;;;;;;7.85;3.55;;;5.70;99.90;;;;;;4975104;28;20050;-79
2023/03/29 02:28:00;;;;;;;6.97;3.30;;;5.70;99.90;;;;;;5009618;28;20038;-79
2023/03/29 02:31:16;;;;;;;6.80;3.00;;;5.70;99.90;;;;;;4992736;28;20129;-79
2023/03/29 02:34:01;;;;;;;8.18;3.35;;;5.70;99.90;;;;;;4973257;28;20057;-79
2023/03/29 02:36:41;;;;;;;6.47;2.88;;;5.60;99.90;;;;;;4992985;28;20045;-79
2023/03/29 02:39:12;;;;;;;7.85;3.53;;;5.70;99.90;;;;;;5009019;28;20041;-79
2023/03/29 02:41:39;;;;;;;6.75;3.20;;;5.70;99.90;;;;;;5009007;28;20435;-79
2023/03/29 02:44:07;;;;;;;7.38;3.15;;;5.70;99.90;;;;;;5009620;28;20038;-79
2023/03/29 02:46:33;;;;;;;5.32;3.05;;;5.60;99.90;;;;;;5008996;28;20041;-79
2023/03/29 02:49:00;;;;;;;6.78;2.88;;;5.70;99.90;;;;;;4992714;28;20092;-79
2023/03/29 02:51:31;;;;;;;7.00;3.60;;;5.80;99.90;;;;;;5009069;28;20508;-79
2023/03/29 02:54:19;;;;;;;7.55;3.10;;;5.70;99.90;;;;;;5009443;28;20037;-79
2023/03/29 02:57:01;;;;;;;7.40;2.95;;;5.70;99.90;;;;;;5008989;28;20053;-79
2023/03/29 02:59:28;;;;;;;4.53;3.15;;;5.70;99.90;;;;;;5008517;28;20037;-79
2023/03/29 03:01:54;;;;;;;5.80;3.13;;;5.70;99.90;;;;;;4994622;28;20502;-79
2023/03/29 03:04:20;;;;;;;6.93;3.85;;;5.80;99.90;;;;;;5012756;28;20045;-79
2023/03/29 03:06:46;;;;;;;6.55;3.45;;;5.70;99.90;;;;;;4996267;28;20030;-79
2023/03/29 03:09:13;;;;;;;6.53;3.28;;;5.80;99.90;;;;;;5012880;28;20046;-79
2023/03/29 03:11:39;;;;;;;;;;;5.80;99.90;;;;;;5012863;28;20120;-79
2023/03/29 03:14:06;;;;;;;7.13;3.47;;;5.80;99.90;;;;;;5012493;28;20008;-79
2023/03/29 03:16:32;;;;;;;8.18;3.40;;;5.80;99.90;;;;;;5012033;28;20050;-79
2023/03/29 03:18:58;;;;;;;6.18;3.28;;;6.50;99.90;;;;;;4995878;28;20120;-79
2023/03/29 03:21:24;;;;;;;4.32;3.03;;;5.80;99.90;;;;;;4996180;28;20125;-79
2023/03/29 03:23:50;;;;;;;8.68;3.42;;;5.70;99.90;;;;;;5012321;28;20155;-79
2023/03/29 03:26:17;;;;;;;8.20;3.75;;;6.10;99.90;;;;;;4995926;28;20069;-79
2023/03/29 03:28:44;;;;;;;8.52;3.30;;;5.70;99.90;;;;;;5011688;28;20091;-79
2023/03/29 03:31:12;;;;;;;6.65;3.00;;;5.80;99.90;;;;;;5012174;28;20568;-79
2023/03/29 03:33:39;;;;;;;9.10;3.78;;;6.10;99.90;;;;;;4979645;28;20046;-79
2023/03/29 03:36:07;;;;;;;4.60;2.90;;;5.80;99.90;;;;;;4995958;28;20042;-79
2023/03/29 03:38:33;;;;;;;5.72;3.40;;;5.80;99.90;;;;;;5012071;28;20490;-79
2023/03/29 03:41:00;;;;;;;5.30;2.90;;;5.80;99.90;;;;;;5012134;28;20116;-79
2023/03/29 03:43:27;;;;;;;6.95;3.45;;;5.80;99.90;;;;;;5011617;28;20038;-79
2023/03/29 03:45:53;;;;;;;5.53;2.85;;;5.80;99.90;;;;;;5012295;28;20045;-79
2023/03/29 03:48:19;;;;;;;6.88;3.22;;;5.70;99.90;;;;;;5011784;28;20103;-79
2023/03/29 03:50:53;;;;;;;11.70;4.28;;;6.10;99.90;;;;;;5011453;28;20052;-79
2023/03/29 03:53:21;;;;;;;6.85;4.20;;;5.70;99.90;;;;;;5011971;28;20050;-79
2023/03/29 03:55:48;;;;;;;6.90;3.20;;;5.80;99.90;;;;;;5011286;28;20144;-79
2023/03/29 03:58:14;;;;;;;8.48;3.25;;;5.80;99.90;;;;;;4995384;28;20081;-79
2023/03/29 04:00:40;;;;;;;7.07;3.28;;;5.90;99.90;;;;;;4994949;28;20049;-79
2023/03/29 04:03:06;;;;;;;6.95;3.58;;;5.90;99.90;;;;;;4963247;28;20149;-79
2023/03/29 04:05:32;;;;;;;12.15;3.50;;;5.90;99.90;;;;;;4995409;28;20133;-79
2023/03/29 04:07:59;;;;;;;7.82;3.50;;;5.90;99.90;;;;;;4979196;28;20026;-79
2023/03/29 04:10:24;;;;;;;;;;;5.90;99.90;;;;;;4995921;28;20073;-78
2023/03/29 04:12:50;;;;;;;6.80;3.58;;;5.90;99.90;;;;;;5010746;28;19967;-78
2023/03/29 04:15:16;;;;;;;5.55;3.30;;;5.90;99.90;;;;;;4994822;28;20050;-79
2023/03/29 04:17:42;;;;;;;6.72;3.83;;;5.90;99.90;;;;;;5011190;28;20065;-77
2023/03/29 04:20:11;;;;;;;5.82;2.95;;;5.80;99.90;;;;;;4994944;28;20061;-78
2023/03/29 04:22:38;;;;;;;9.45;4.15;;;5.80;99.90;;;;;;5009276;28;20112;-78
2023/03/29 04:25:05;;;;;;;5.40;3.38;;;5.80;99.90;;;;;;4994772;28;20062;-77
2023/03/29 04:27:31;;;;;;;7.60;3.97;;;5.80;99.90;;;;;;5011258;28;20469;-78
2023/03/29 04:29:57;;;;;;;8.10;3.97;;;5.80;99.90;;;;;;5011387;28;20478;-77
2023/03/29 04:32:23;;;;;;;6.35;3.53;;;5.90;99.90;;;;;;4994894;28;20092;-79
2023/03/29 04:34:49;;;;;;;;;;;5.90;99.90;;;;;;5011362;28;20474;-77
2023/03/29 04:37:15;;;;;;;7.10;3.38;;;5.80;99.90;;;;;;4994670;28;19959;-77
2023/03/29 04:39:41;;;;;;;7.18;3.90;;;5.90;99.90;;;;;;5010597;28;20383;-77
2023/03/29 04:42:07;;;;;;;7.22;4.32;;;5.90;99.90;;;;;;4994556;28;20049;-78
2023/03/29 04:44:33;;;;;;;7.95;4.88;;;5.90;99.90;;;;;;5010831;28;20069;-79
2023/03/29 04:47:00;;;;;;;7.53;4.18;;;5.90;99.90;;;;;;5011101;28;20038;-78
2023/03/29 04:49:26;;;;;;;11.30;5.22;;;5.90;99.90;;;;;;4994378;28;20042;-78
2023/03/29 04:52:31;;;;;;;7.57;4.28;;;5.90;99.90;;;;;;4997355;28;20387;-79
2023/03/29 04:54:58;;;;;;;8.93;3.83;;;5.90;99.90;;;;;;4989884;28;20054;-79
2023/03/29 04:57:24;;;;;;;9.15;4.18;;;5.90;99.90;;;;;;5011124;28;20049;-79
2023/03/29 04:59:49;;;;;;;9.30;4.25;;;6.20;99.90;;;;;;4992821;28;20532;-79
2023/03/29 05:02:15;;;;;;;9.45;4.53;;;5.80;99.90;;;;;;4992246;28;20049;-79
2023/03/29 05:04:41;;;;;;;7.00;3.73;;;5.90;99.90;;;;;;5008107;28;20048;-78
2023/03/29 05:07:06;;;;;;;10.90;3.97;;;5.80;99.90;;;;;;4976933;28;20120;-79
2023/03/29 05:09:32;;;;;;;5.47;3.63;;;5.90;99.90;;;;;;4993299;28;20053;-79
2023/03/29 05:11:58;;;;;;;15.50;4.68;;;5.90;99.90;;;;;;4993295;28;20115;-79
2023/03/29 05:14:23;;;;;;;7.35;4.18;;;6.00;99.90;;;;;;4991161;28;20052;-79
2023/03/29 05:16:49;;;;;;;11.03;4.53;;;5.90;99.90;;;;;;5006347;28;20521;-79
2023/03/29 05:19:15;;;;;;;6.93;4.20;;;6.10;99.90;;;;;;5006753;28;20443;-79
2023/03/29 05:21:41;;;;;;;7.93;4.03;;;5.90;99.90;;;;;;5005314;28;20034;-79
2023/03/29 05:24:07;;;;;;;9.73;4.30;;;5.90;99.90;;;;;;4975619;28;20030;-76
2023/03/29 05:26:32;;;;;;;5.77;3.23;;;5.90;99.90;;;;;;5006127;28;20384;-76
2023/03/29 05:28:58;;;;;;;7.25;4.28;;;6.00;99.90;;;;;;5008003;28;20276;-76
2023/03/29 05:31:24;;;;;;;7.73;4.20;;;6.00;99.90;;;;;;4991218;28;20127;-76
2023/03/29 05:33:50;;;;;;;8.13;4.17;;;6.10;99.90;;;;;;5005012;28;20594;-76
2023/03/29 05:36:18;;;;;;;8.48;4.78;;;6.00;99.90;;;;;;4990014;28;20300;-76
2023/03/29 05:38:45;;;;;;;8.20;3.88;;;6.00;99.90;;;;;;5005752;28;20054;-76
2023/03/29 05:41:11;;;;;;;7.75;3.63;;;6.20;99.90;;;;;;5006843;28;20149;-77
2023/03/29 05:43:37;;;;;;;9.07;4.03;;;6.10;99.90;;;;;;5006236;28;20107;-76
2023/03/29 05:46:04;;;;;;;8.10;5.07;;;6.40;99.90;;;;;;5007281;28;20037;-76
2023/03/29 05:48:31;;;;;;;10.05;4.82;;;6.20;99.90;;;;;;5005453;28;20049;-76
2023/03/29 05:50:57;;;;;;;9.60;5.28;;;6.10;99.90;;;;;;4989249;28;20026;-76
2023/03/29 05:53:26;;;;;;;7.25;3.60;;;6.10;99.90;;;;;;5005592;28;20136;-76
2023/03/29 05:55:52;;;;;;;7.93;4.05;;;6.00;99.90;;;;;;5005475;28;20052;-76
2023/03/29 05:58:19;;;;;;;10.77;4.65;;;6.10;99.90;;;;;;5005790;28;20435;-76
2023/03/29 06:00:48;;;;;;;11.88;5.57;;;6.10;99.90;;;;;;4990200;28;20125;-76
2023/03/29 06:03:24;;;;;;;11.45;4.53;;;6.10;99.90;;;;;;5007369;28;20048;-76
2023/03/29 06:05:59;;;;;;;13.80;5.72;;;6.10;99.90;;;;;;5006734;28;20042;-76
2023/03/29 06:08:26;;;;;;;8.25;5.13;;;6.10;99.90;;;;;;5006941;28;20560;-76
2023/03/29 06:11:12;;;;;;;10.40;5.03;;;6.20;99.90;;;;;;4990046;28;20052;-76
2023/03/29 06:13:38;;;;;;;11.30;5.07;;;6.20;99.90;;;;;;5003490;28;20077;-75
2023/03/29 06:16:05;;;;;;;11.25;5.32;;;6.20;99.90;;;;;;5007444;28;20046;-75
2023/03/29 06:18:35;;;;;;;10.02;5.28;;;6.20;99.90;;;;;;4988804;28;20049;-75
2023/03/29 06:21:01;;;;;;;8.88;4.97;;;6.20;99.90;;;;;;5005982;28;20740;-77
2023/03/29 06:23:27;;;;;;;8.60;5.18;;;6.10;99.90;;;;;;5007791;28;20046;-76
2023/03/29 06:25:54;;;;;;;;;;;6.10;99.90;;;;;;5006572;28;20042;-76
2023/03/29 06:28:20;;;;;;;13.38;6.72;;;6.10;99.90;;;;;;5005909;28;20292;-76
2023/03/29 06:30:48;;;;;;;11.82;5.47;;;6.10;99.90;;;;;;5005919;28;20100;-76
2023/03/29 06:33:14;;;;;;;10.95;5.68;;;6.10;99.90;;;;;;4991199;28;20042;-76
2023/03/29 06:35:46;;;;;;;11.18;6.03;;;6.10;99.90;;;;;;4987984;28;20116;-76
2023/03/29 06:38:13;;;;;;;12.93;6.53;;;6.40;99.90;;;;;;5010861;28;20069;-76
2023/03/29 06:40:39;;;;;;;13.70;5.90;;;6.10;99.90;;;;;;5009814;28;20117;-76
2023/03/29 06:43:06;;;;;;;13.68;6.07;;;6.10;99.90;;;;;;5010440;28;20120;-76
2023/03/29 06:45:32;;;;;;;;;;;6.20;99.90;;;;;;5009288;28;20030;-77
2023/03/29 06:47:58;;;;;;;11.37;5.60;;;6.20;99.90;;;;;;5008200;28;20362;-76
2023/03/29 06:50:24;;;;;;;11.97;6.37;;;6.20;99.90;;;;;;4993211;28;20064;-77
2023/03/29 06:52:51;;;;;;;;;;;6.30;99.90;;;;;;5009333;28;20045;-76
2023/03/29 06:55:17;;;;;;;11.63;6.43;;;6.30;99.90;;;;;;5009980;28;20007;-77
2023/03/29 06:57:44;;;;;;;9.75;5.38;;;6.30;99.90;;;;;;5009125;28;20161;-77
2023/03/29 07:00:16;;;;;;;10.77;6.40;;;6.30;99.90;;;;;;4993790;28;20195;-77
2023/03/29 07:02:43;;;;;;;12.32;6.43;;;6.30;99.90;;;;;;5009785;28;20041;-77
2023/03/29 07:05:11;;;;;;;12.95;6.82;;;6.30;99.90;;;;;;5007911;28;20042;-77
2023/03/29 07:07:54;;;;;;;15.07;6.57;;;6.30;99.90;;;;;;4993084;28;20082;-76
2023/03/29 07:10:21;;;;;;;9.18;5.43;;;6.30;99.90;;;;;;5010029;28;20049;-77
2023/03/29 07:12:48;;;;;;;12.10;6.35;;;6.30;99.90;;;;;;5010273;28;20095;-76
2023/03/29 07:15:14;;;;;;;12.15;6.60;;;6.30;99.90;;;;;;5010120;28;20054;-76
2023/03/29 07:17:40;;;;;;;13.80;6.43;;;6.30;99.90;;;;;;5009704;28;20040;-77
2023/03/29 07:20:13;;;;;;;11.10;6.05;;;6.40;99.90;;;;;;5008409;28;20046;-77
2023/03/29 07:22:43;;;;;;;14.23;6.65;;;6.70;99.90;;;;;;5007792;28;20029;-77
2023/03/29 07:25:11;;;;;;;11.18;5.72;;;6.80;99.90;;;;;;5009816;28;20046;-76
2023/03/29 07:27:37;;;;;;;11.77;5.72;;;7.00;99.90;;;;;;5009657;28;20050;-76
2023/03/29 07:30:07;;;;;;;;;;;7.00;99.90;;;;;;5009827;28;20038;-77
2023/03/29 07:32:33;;;;;;;12.73;5.70;;;7.00;99.90;;;;;;5008914;28;19925;-77
2023/03/29 07:34:58;;;;;;;8.13;4.25;;;7.00;99.90;;;;;;5009744;28;20040;-77
2023/03/29 07:37:24;;;;;;;9.38;4.60;;;7.00;99.90;;;;;;5007706;28;20498;-76
2023/03/29 07:39:50;;;;;;;10.98;5.07;;;7.00;99.90;;;;;;5008572;28;20749;-77
2023/03/29 07:42:17;;;;;;;7.78;4.57;;;7.00;99.90;;;;;;4993077;28;20058;-77
2023/03/29 07:44:42;;;;;;;10.45;5.25;;;7.00;99.90;;;;;;5009825;28;20501;-76
2023/03/29 07:47:08;;;;;;;11.33;5.57;;;7.00;99.90;;;;;;5008602;28;20073;-76
2023/03/29 07:49:34;;;;;;;8.90;4.97;;;7.10;99.90;;;;;;5008436;28;20041;-76
2023/03/29 07:52:00;;;;;;;11.77;6.07;;;7.00;99.90;;;;;;5009157;28;20045;-77
2023/03/29 07:54:26;;;;;;;;;;;7.00;99.90;;;;;;4992673;28;20065;-76
2023/03/29 07:56:51;;;;;;;11.10;5.97;;;7.10;99.90;;;;;;5008285;28;19917;-76
2023/03/29 07:59:17;;;;;;;13.40;5.70;;;7.00;99.90;;;;;;5008386;28;20452;-76
2023/03/29 08:01:43;;;;;;;10.73;5.68;;;7.00;99.90;;;;;;5007920;28;20617;-76
2023/03/29 08:04:09;;;;;;;9.48;4.82;;;7.10;99.90;;;;;;5008333;28;20046;-76
2023/03/29 08:06:36;;;;;;;10.32;5.97;;;7.20;99.90;;;;;;4998382;28;20050;-77
2023/03/29 08:09:01;;;;;;;12.43;5.35;;;7.20;99.90;;;;;;5007597;28;20093;-76
2023/03/29 08:11:27;;;;;;;8.57;5.43;;;7.30;99.90;;;;;;5004945;28;20132;-77
2023/03/29 08:13:53;;;;;;;10.98;5.43;;;7.40;99.90;;;;;;4990502;28;20293;-77
2023/03/29 08:16:19;;;;;;;11.73;5.43;;;8.30;99.90;;;;;;5006409;28;20076;-77
2023/03/29 08:18:45;;;;;;;7.70;4.50;;;7.40;99.90;;;;;;5005027;28;20045;-76
2023/03/29 08:21:13;;;;;;;10.10;5.23;;;7.50;99.90;;;;;;5004022;28;20050;-77
2023/03/29 08:23:39;;;;;;;11.75;5.35;;;7.60;99.90;;;;;;5000560;28;20332;-76
2023/03/29 08:26:07;;;;;;;10.77;5.40;;;7.70;99.90;;;;;;4988651;28;20038;-76
2023/03/29 08:28:33;;;;;;;10.20;4.72;;;7.70;99.90;;;;;;5001298;28;20273;-77
2023/03/29 08:30:59;;;;;;;9.55;5.50;;;7.80;99.90;;;;;;4986535;28;20066;-76
2023/03/29 08:33:25;;;;;;;7.72;4.70;;;7.90;99.90;;;;;;5003869;28;20156;-76
2023/03/29 08:35:51;;;;;;;9.40;4.47;;;8.00;99.90;;;;;;5006603;28;20056;-76
2023/03/29 08:38:17;;;;;;;12.65;5.57;;;7.90;99.90;;;;;;5006715;28;20046;-77
2023/03/29 08:40:46;;;;;;;9.43;4.38;;;8.10;99.90;;;;;;5007472;28;20038;-78
2023/03/29 08:43:24;;;;;;;9.57;4.93;;;8.10;99.90;;;;;;5007313;28;20625;-77
2023/03/29 08:45:58;;;;;;;7.63;5.10;;;8.00;99.90;;;;;;5006134;28;20046;-77
2023/03/29 08:48:27;;;;;;;10.40;5.72;;;8.20;99.90;;;;;;5000810;28;20038;-79
2023/03/29 08:51:03;;;;;;;13.02;5.55;;;8.40;99.90;;;;;;5000301;28;20100;-79
2023/03/29 08:53:37;;;;;;;8.57;4.90;;;8.50;99.90;;;;;;5000775;28;20034;-79
2023/03/29 08:56:37;;;;;;;8.63;5.00;;;8.70;99.90;;;;;;4997942;28;20050;-78
2023/03/29 08:59:05;;;;;;;10.73;4.35;;;8.80;99.90;;;;;;4971506;28;20193;-86
2023/03/29 09:01:35;;;;;;;12.30;5.13;;;8.90;99.90;;;;;;5004259;28;20037;-86
2023/03/29 09:04:21;;;;;;;8.25;4.57;;;8.90;99.90;;;;;;5002280;28;20030;-86
2023/03/29 09:06:47;;;;;;;10.57;5.55;;;9.00;99.90;;;;;;5007325;28;20433;-86
2023/03/29 09:09:19;;;;;;;8.68;5.07;;;9.00;99.90;;;;;;5005333;28;20076;-86
2023/03/29 09:11:57;;;;;;;11.90;4.95;;;9.10;99.90;;;;;;4995743;28;20048;-86
2023/03/29 09:14:31;;;;;;;7.82;4.90;;;9.20;99.90;;;;;;4985239;28;20046;-83
2023/03/29 09:17:15;;;;;;;8.48;5.10;;;9.30;99.90;;;;;;5006627;28;20049;-84
2023/03/29 09:20:11;;;;;;;7.15;4.32;;;9.30;99.90;;;;;;4999744;28;20050;-84
2023/03/29 09:22:56;;;;;;;6.57;4.15;;;9.40;99.90;;;;;;5004663;28;20045;-83
2023/03/29 09:25:46;;;;;;;10.88;4.72;;;9.60;99.90;;;;;;5007599;28;20078;-84
2023/03/29 09:28:13;;;;;;;12.10;5.15;;;9.80;99.90;;;;;;5005654;28;20069;-83
2023/03/29 09:30:41;;;;;;;11.88;5.28;;;9.90;99.90;;;;;;4988566;28;20049;-84
2023/03/29 09:33:21;;;;;;;11.50;5.18;;;9.90;99.90;;;;;;5009351;28;20045;-88
2023/03/29 09:36:04;;;;;;;14.57;5.20;;;9.90;99.90;;;;;;5007948;28;20042;-86
2023/03/29 09:38:30;;;;;;;13.00;5.38;;;9.90;99.90;;;;;;5008280;28;20038;-84
2023/03/29 09:41:13;;;;;;;11.73;5.63;;;10.20;99.90;;;;;;5008577;28;20042;-86
2023/03/29 09:43:41;;;;;;;10.57;4.90;;;10.30;99.90;;;;;;4991224;28;20038;-86
2023/03/29 09:46:34;;;;;;;9.52;5.03;;;10.30;99.90;;;;;;5008914;28;20030;-84
2023/03/29 09:49:00;;;;;;;9.23;4.57;;;10.40;99.90;;;;;;4991446;28;20188;-82
2023/03/29 09:51:31;;;;;;;9.90;4.90;;;10.60;99.90;;;;;;5004274;28;20482;-83
2023/03/29 09:53:59;;;;;;;12.93;4.97;;;10.70;99.90;;;;;;4997209;28;20034;-83
2023/03/29 09:56:25;;;;;;;11.57;5.32;;;10.70;99.90;;;;;;5006080;28;20050;-83
2023/03/29 09:58:51;;;;;;;10.20;5.38;;;10.70;99.90;;;;;;4988685;28;20056;-83
2023/03/29 10:01:17;;;;;;;13.38;5.97;;;10.60;99.90;;;;;;5004577;28;20046;-83
2023/03/29 10:03:51;;;;;;;11.00;5.28;;;10.50;99.90;;;;;;4989598;28;20038;-84
2023/03/29 10:06:20;;;;;;;9.90;5.72;;;10.50;99.90;;;;;;5007102;28;20050;-81
2023/03/29 10:08:48;;;;;;;11.68;4.55;;;10.40;99.90;;;;;;5009939;28;20117;-83
2023/03/29 10:11:22;;;;;;;10.55;4.97;;;10.50;99.90;;;;;;4990882;28;20500;-82
2023/03/29 10:13:53;;;;;;;9.55;5.35;;;10.50;99.90;;;;;;5008000;28;20033;-83
2023/03/29 10:16:22;;;;;;;11.30;5.50;;;10.40;99.90;;;;;;5012092;28;20045;-81
2023/03/29 10:18:49;;;;;;;12.82;5.13;;;10.50;99.90;;;;;;5012480;28;20120;-82
2023/03/29 10:21:16;;;;;;;15.85;6.78;;;10.40;99.90;;;;;;5012121;28;20088;-82
2023/03/29 10:23:43;;;;;;;13.50;5.85;;;10.40;99.90;;;;;;4995893;28;20545;-82
2023/03/29 10:26:24;;;;;;;;;;;10.40;99.90;;;;;;5012947;28;20038;-81
2023/03/29 10:28:53;;;;;;;10.90;6.43;;;10.40;99.90;;;;;;5012629;28;19917;-83
2023/03/29 10:31:21;;;;;;;14.60;6.15;;;10.50;99.90;;;;;;4996229;28;20052;-82
2023/03/29 10:34:01;;;;;;;13.50;6.72;;;10.60;99.90;;;;;;4997085;28;20046;-82
2023/03/29 10:36:27;;;;;;;13.48;7.13;;;10.60;99.90;;;;;;5011938;28;20084;-83
2023/03/29 10:38:59;;;;;;;15.60;6.65;;;10.60;99.90;;;;;;5013299;28;20064;-83
2023/03/29 10:41:26;;;;;;;15.65;6.85;;;10.60;99.90;;;;;;5012761;28;20117;-84
2023/03/29 10:43:52;;;;;;;13.95;6.78;;;10.70;99.90;;;;;;5012482;28;20038;-83
2023/03/29 10:46:26;;;;;;;11.70;6.18;;;10.70;99.90;;;;;;5012761;28;20037;-84
2023/03/29 10:49:03;;;;;;;15.07;6.85;;;10.90;99.90;;;;;;5013342;28;20037;-82
2023/03/29 10:51:29;;;;;;;12.25;6.25;;;10.90;99.90;;;;;;5013978;28;20079;-84
2023/03/29 10:53:57;;;;;;;13.57;7.20;;;10.90;99.90;;;;;;4996240;28;20034;-83
2023/03/29 10:56:57;;;;;;;13.98;6.25;;;11.00;99.90;;;;;;4993134;28;20041;-83
2023/03/29 10:59:26;;;;;;;10.38;6.00;;;11.10;99.90;;;;;;5007655;28;20413;-77
2023/03/29 11:02:07;;;;;;;12.23;6.95;;;11.30;99.90;;;;;;5009714;28;20076;-77
2023/03/29 11:05:07;;;;;;;16.42;6.90;;;11.70;99.90;;;;;;5006338;28;20117;-77
2023/03/29 11:08:03;;;;;;;16.25;7.60;;;11.90;99.90;;;;;;5008832;28;20113;-78
2023/03/29 11:10:41;;;;;;;15.77;7.05;;;12.10;99.90;;;;;;4991811;28;20095;-78
2023/03/29 11:13:16;;;;;;;11.80;6.40;;;12.20;99.90;;;;;;5009332;28;20042;-78
2023/03/29 11:15:54;;;;;;;15.43;7.38;;;12.50;99.90;;;;;;5008477;28;20033;-77
2023/03/29 11:18:22;;;;;;;17.02;7.55;;;12.70;99.90;;;;;;4991196;28;20062;-79
2023/03/29 11:21:06;;;;;;;12.95;6.70;;;13.00;99.90;;;;;;5009508;28;20038;-77
2023/03/29 11:23:58;;;;;;;16.02;6.53;;;13.10;99.90;;;;;;5010002;28;20475;-79
2023/03/29 11:26:25;;;;;;;10.63;6.47;;;13.30;99.90;;;;;;4990095;28;20121;-78
2023/03/29 11:29:07;;;;;;;14.45;6.70;;;13.50;99.90;;;;;;5010082;28;20125;-78
2023/03/29 11:31:51;;;;;;;12.55;6.78;;;13.60;99.90;;;;;;5008384;28;20046;-78
2023/03/29 11:34:28;;;;;;;11.35;6.95;;;13.70;99.90;;;;;;5006298;28;20041;-78
2023/03/29 11:37:21;;;;;;;10.98;6.40;;;13.60;99.90;;;;;;4993518;28;20041;-78
2023/03/29 11:40:28;;;;;;;11.20;6.63;;;13.70;99.90;;;;;;5009282;28;20402;-78
2023/03/29 11:42:57;;;;;;;12.40;6.70;;;13.70;99.90;;;;;;5008761;28;20109;-78
2023/03/29 11:45:31;;;;;;;14.43;7.75;;;13.50;99.90;;;;;;5008209;28;20125;-78
2023/03/29 11:48:00;;;;;;;16.52;7.18;;;13.20;99.90;;;;;;5008321;28;20048;-78
2023/03/29 11:51:10;;;;;;;13.60;7.30;;;13.10;99.90;;;;;;4991585;28;20057;-78
2023/03/29 11:53:47;;;;;;;11.88;6.38;;;13.00;99.90;;;;;;4989995;28;20062;-78
2023/03/29 11:56:23;;;;;;;12.00;6.85;;;13.10;99.90;;;;;;4992369;28;20478;-78
2023/03/29 11:58:56;;;;;;;11.38;5.82;;;12.90;99.90;;;;;;5008473;28;20034;-77
2023/03/29 12:01:29;;;;;;;12.63;6.38;;;13.00;99.90;;;;;;5008111;28;20125;-77
2023/03/29 12:04:00;;;;;;;10.25;5.90;;;13.00;99.90;;;;;;4989851;28;20540;-77
2023/03/29 12:06:32;;;;;;;10.98;6.50;;;13.10;99.90;;;;;;5006375;28;20041;-78
2023/03/29 12:09:24;;;;;;;16.10;6.47;;;13.00;99.90;;;;;;5008326;28;20084;-77
2023/03/29 12:12:20;;;;;;;12.07;5.70;;;13.10;99.90;;;;;;5006004;28;20037;-78
2023/03/29 12:15:02;;;;;;;9.48;5.70;;;13.30;99.90;;;;;;5009738;28;20034;-87
2023/03/29 12:18:00;;;;;;;12.70;7.25;;;13.40;99.90;;;;;;4990414;28;20092;-86
2023/03/29 12:20:33;;;;;;;10.10;5.03;;;13.40;99.90;;;;;;5009928;28;20084;-88
2023/03/29 12:23:00;;;;;;;10.75;6.55;;;13.60;99.90;;;;;;5008407;28;20041;-86
2023/03/29 12:25:39;;;;;;;8.18;5.80;;;13.80;99.90;;;;;;4993990;28;20065;-87
2023/03/29 12:28:38;;;;;;;11.20;5.60;;;14.00;99.90;;;;;;5012223;28;20122;-87
2023/03/29 12:31:04;;;;;;;10.38;5.93;;;14.20;99.90;;;;;;5010921;28;20054;-87
2023/03/29 12:33:55;;;;;;;8.82;6.28;;;14.30;99.90;;;;;;4993418;28;20052;-87
2023/03/29 12:36:43;;;;;;;10.10;6.25;;;14.40;99.90;;;;;;5010170;28;20026;-87
2023/03/29 12:39:17;;;;;;;7.07;5.22;;;14.50;99.90;;;;;;5009943;28;20406;-86
2023/03/29 12:41:47;;;;;;;9.68;6.05;;;14.40;99.90;;;;;;5010870;28;20049;-87
2023/03/29 12:44:19;;;;;;;10.02;5.72;;;14.40;99.90;;;;;;5010830;28;20529;-86
2023/03/29 12:46:45;;;;;;;9.30;5.80;;;14.40;99.90;;;;;;5009161;28;20113;-85
2023/03/29 12:49:28;;;;;;;8.75;5.82;;;14.50;99.90;;;;;;4992586;28;20042;-87
2023/03/29 12:51:57;;;;;;;11.60;5.57;;;14.40;99.90;;;;;;5008856;28;20121;-87
2023/03/29 12:54:30;;;;;;;10.65;6.22;;;14.40;99.90;;;;;;4988494;28;20120;-87
2023/03/29 12:57:00;;;;;;;9.13;6.00;;;14.40;99.90;;;;;;4992444;28;20112;-86
2023/03/29 12:59:36;;;;;;;10.73;6.70;;;14.30;99.90;;;;;;5009283;28;20131;-84
2023/03/29 13:02:26;;;;;;;8.93;5.53;;;14.30;99.90;;;;;;5007810;28;20414;-83
2023/03/29 13:04:55;;;;;;;9.00;5.80;;;14.30;99.90;;;;;;4981782;28;20699;-82
2023/03/29 13:07:26;;;;;;;10.15;5.90;;;14.30;99.90;;;;;;4992346;28;20401;-86
2023/03/29 13:09:56;;;;;;;12.27;6.13;;;14.30;99.90;;;;;;5004968;28;20134;-87
2023/03/29 13:12:38;;;;;;;11.85;6.55;;;14.20;99.90;;;;;;5007995;28;20041;-87
2023/03/29 13:15:27;;;;;;;8.18;5.70;;;14.10;99.90;;;;;;5008159;28;20049;-86
2023/03/29 13:18:35;;;;;;;8.98;5.50;;;14.10;99.90;;;;;;5007505;28;20052;-86